Time;durP1;ratioP1;P1;durP2;ratioP2;P2;SDS_P1;SDS_P2;PMS_P1;PMS_P2;Temp;Humidity;BMP_temperature;BMP_pressure;BME280_temperature;BME280_humidity;BME280_pressure;Samples;Min_cycle;Max_cycle;Signal;HPM_P1;HPM_P2
2022/06/12 00:04:10;;;;;;;13.52;8.65;;;;;;;;;;10316014;28;20076;-63
2022/06/12 00:09:08;;;;;;;11.15;8.40;;;;;;;;;;10315846;28;20051;-63
2022/06/12 00:14:08;;;;;;;8.98;7.85;;;;;;;;;;10291528;28;20049;-62
2022/06/12 00:19:07;;;;;;;8.30;7.50;;;;;;;;;;10275734;28;20049;-63
2022/06/12 00:24:06;;;;;;;9.57;7.72;;;;;;;;;;10274649;28;20092;-63
2022/06/12 00:29:06;;;;;;;10.52;7.95;;;;;;;;;;10289275;28;20088;-63
2022/06/12 00:34:06;;;;;;;12.00;8.70;;;;;;;;;;10275903;28;20055;-63
2022/06/12 00:39:04;;;;;;;9.30;8.10;;;;;;;;;;10275523;28;20079;-64
2022/06/12 00:44:03;;;;;;;10.13;8.50;;;;;;;;;;10281616;28;20072;-64
2022/06/12 00:49:03;;;;;;;10.93;9.00;;;;;;;;;;10283442;28;20413;-63
2022/06/12 00:54:02;;;;;;;13.23;8.93;;;;;;;;;;10283365;28;20045;-63
2022/06/12 00:59:03;;;;;;;11.77;8.40;;;;;;;;;;10282980;28;20041;-63
2022/06/12 01:09:22;;;;;;;10.75;9.38;;;;;;;;;;10282292;28;20083;-64
2022/06/12 01:14:23;;;;;;;10.65;9.75;;;;;;;;;;10282144;28;20083;-64
2022/06/12 01:19:26;;;;;;;10.68;9.77;;;;;;;;;;10281315;28;20045;-63
2022/06/12 01:24:32;;;;;;;11.48;9.57;;;;;;;;;;10281124;28;20092;-64
2022/06/12 01:29:34;;;;;;;10.57;9.57;;;;;;;;;;10280965;28;20052;-64
2022/06/12 01:34:39;;;;;;;9.88;8.98;;;;;;;;;;10281012;28;20097;-65
2022/06/12 01:39:37;;;;;;;;;;;;;;;;;;10288833;28;20044;-64
2022/06/12 01:44:40;;;;;;;12.95;8.82;;;;;;;;;;10321336;28;20003;-65
2022/06/12 01:49:42;;;;;;;10.07;9.17;;;;;;;;;;10320914;28;20076;-65
2022/06/12 01:54:43;;;;;;;10.77;9.75;;;;;;;;;;10320679;28;20080;-64
2022/06/12 01:59:45;;;;;;;11.02;9.75;;;;;;;;;;10298774;28;20052;-63
2022/06/12 02:04:46;;;;;;;10.82;9.05;;;;;;;;;;10279383;28;20080;-64
2022/06/12 02:09:46;;;;;;;10.57;9.50;;;;;;;;;;10279077;28;20070;-65
2022/06/12 02:14:48;;;;;;;10.75;9.10;;;;;;;;;;10279536;28;20052;-63
2022/06/12 02:19:47;;;;;;;9.65;8.75;;;;;;;;;;10278577;28;20036;-64
2022/06/12 02:24:47;;;;;;;11.05;9.93;;;;;;;;;;10278650;28;20143;-65
2022/06/12 02:29:50;;;;;;;9.95;9.05;;;;;;;;;;10278517;28;20192;-64
2022/06/12 02:34:50;;;;;;;11.50;10.48;;;;;;;;;;10278746;28;20053;-64
2022/06/12 02:39:50;;;;;;;10.27;9.40;;;;;;;;;;10278069;28;20186;-64
2022/06/12 02:44:52;;;;;;;10.43;9.55;;;;;;;;;;10278148;28;20458;-64
2022/06/12 02:49:51;;;;;;;10.43;9.10;;;;;;;;;;10277692;28;20041;-63
2022/06/12 02:54:52;;;;;;;10.82;8.85;;;;;;;;;;10290856;28;20516;-63
2022/06/12 02:59:58;;;;;;;10.10;8.57;;;;;;;;;;10277409;28;20052;-64
2022/06/12 03:04:59;;;;;;;10.90;9.07;;;;;;;;;;10275545;28;20053;-63
2022/06/12 03:10:00;;;;;;;10.13;9.20;;;;;;;;;;10277196;28;20045;-63
2022/06/12 03:15:00;;;;;;;8.65;7.88;;;;;;;;;;10276894;28;20053;-63
2022/06/12 03:19:58;;;;;;;9.00;8.23;;;;;;;;;;10275670;28;20057;-64
2022/06/12 03:25:02;;;;;;;9.25;8.43;;;;;;;;;;10276069;28;20077;-64
2022/06/12 03:30:05;;;;;;;9.07;8.18;;;;;;;;;;10276391;28;20103;-64
2022/06/12 03:35:09;;;;;;;10.38;8.50;;;;;;;;;;10276193;28;20414;-64
2022/06/12 03:40:09;;;;;;;9.70;8.80;;;;;;;;;;10276177;28;20044;-64
2022/06/12 03:45:12;;;;;;;10.80;9.85;;;;;;;;;;10276234;28;20099;-64
2022/06/12 03:50:14;;;;;;;12.15;9.25;;;;;;;;;;10275666;28;20037;-64
2022/06/12 03:55:16;;;;;;;14.30;9.93;;;;;;;;;;10275310;28;20076;-64
2022/06/12 04:00:17;;;;;;;10.57;9.02;;;;;;;;;;10275342;28;20045;-64
2022/06/12 04:05:18;;;;;;;9.80;8.88;;;;;;;;;;10280768;28;20079;-64
2022/06/12 04:10:18;;;;;;;10.90;9.93;;;;;;;;;;10282586;28;20041;-64
2022/06/12 04:15:21;;;;;;;10.82;9.73;;;;;;;;;;10274648;28;20055;-62
2022/06/12 04:20:21;;;;;;;8.95;8.05;;;;;;;;;;10297756;28;20087;-63
2022/06/12 04:25:29;;;;;;;9.60;8.40;;;;;;;;;;10297952;28;20110;-63
2022/06/12 04:30:30;;;;;;;9.52;8.63;;;;;;;;;;10289539;28;20470;-63
2022/06/12 04:35:28;;;;;;;10.52;9.52;;;;;;;;;;10283123;28;20068;-63
2022/06/12 04:40:28;;;;;;;11.75;9.35;;;;;;;;;;10283120;28;20095;-63
2022/06/12 04:45:27;;;;;;;13.07;11.68;;;;;;;;;;10282672;28;20106;-63
2022/06/12 04:50:26;;;;;;;13.32;10.60;;;;;;;;;;10311641;28;20409;-63
2022/06/12 04:55:25;;;;;;;12.77;10.00;;;;;;;;;;10284236;28;20068;-63
2022/06/12 05:00:23;;;;;;;12.15;10.13;;;;;;;;;;10280769;28;20045;-63
2022/06/12 05:05:21;;;;;;;10.82;9.70;;;;;;;;;;10298865;28;20099;-64
2022/06/12 05:10:22;;;;;;;9.90;8.70;;;;;;;;;;10306560;28;20467;-63
2022/06/12 05:15:20;;;;;;;11.88;10.23;;;;;;;;;;10285661;28;20509;-63
2022/06/12 05:20:20;;;;;;;13.98;9.95;;;;;;;;;;10291840;28;20091;-63
2022/06/12 05:25:18;;;;;;;16.92;9.95;;;;;;;;;;10314009;28;20064;-63
2022/06/12 05:30:19;;;;;;;12.38;9.95;;;;;;;;;;10309518;28;20037;-63
2022/06/12 05:35:19;;;;;;;12.05;10.75;;;;;;;;;;10319297;28;20076;-63
2022/06/12 05:40:18;;;;;;;11.35;10.13;;;;;;;;;;10282295;28;20065;-63
2022/06/12 05:45:20;;;;;;;17.17;15.43;;;;;;;;;;10289958;28;20073;-64
2022/06/12 05:50:19;;;;;;;11.35;10.30;;;;;;;;;;10292820;28;20053;-63
2022/06/12 05:55:17;;;;;;;11.45;10.30;;;;;;;;;;10280730;28;20072;-62
2022/06/12 06:00:17;;;;;;;10.85;9.23;;;;;;;;;;10290224;28;20079;-64
2022/06/12 06:05:17;;;;;;;14.00;9.60;;;;;;;;;;10279182;28;20087;-62
2022/06/12 06:10:17;;;;;;;16.48;13.60;;;;;;;;;;10274309;28;20068;-63
2022/06/12 06:15:16;;;;;;;25.95;23.35;;;;;;;;;;10272380;28;20080;-64
2022/06/12 06:20:16;;;;;;;13.60;11.45;;;;;;;;;;10274297;28;20538;-63
2022/06/12 06:25:17;;;;;;;10.32;9.38;;;;;;;;;;10274071;28;20084;-63
2022/06/12 06:30:15;;;;;;;16.65;12.27;;;;;;;;;;10275517;28;20065;-63
2022/06/12 06:35:17;;;;;;;11.07;9.95;;;;;;;;;;10277967;28;20076;-64
2022/06/12 06:40:17;;;;;;;17.17;15.40;;;;;;;;;;10277757;28;20053;-63
2022/06/12 06:50:33;;;;;;;10.30;9.30;;;;;;;;;;10278387;28;20052;-63
2022/06/12 06:55:33;;;;;;;10.52;9.63;;;;;;;;;;10277589;28;20049;-64
2022/06/12 07:00:33;;;;;;;12.65;10.43;;;;;;;;;;10278012;28;20061;-63
2022/06/12 07:05:32;;;;;;;10.80;9.15;;;;;;;;;;10277467;28;20076;-62
2022/06/12 07:10:32;;;;;;;11.13;9.15;;;;;;;;;;10276920;28;20052;-63
2022/06/12 07:15:33;;;;;;;10.60;9.45;;;;;;;;;;10277000;28;20052;-63
2022/06/12 07:20:33;;;;;;;10.88;9.20;;;;;;;;;;10276658;28;20403;-63
2022/06/12 07:25:31;;;;;;;13.68;10.18;;;;;;;;;;10275924;28;20091;-63
2022/06/12 07:30:30;;;;;;;11.57;9.77;;;;;;;;;;10276506;28;20068;-63
2022/06/12 07:35:31;;;;;;;13.05;8.73;;;;;;;;;;10276444;28;20128;-63
2022/06/12 07:40:32;;;;;;;11.20;10.18;;;;;;;;;;10276671;28;20045;-63
2022/06/12 07:45:31;;;;;;;9.77;8.77;;;;;;;;;;10276048;28;20510;-62
2022/06/12 07:50:31;;;;;;;10.10;9.18;;;;;;;;;;10274440;28;20049;-63
2022/06/12 07:55:29;;;;;;;9.68;8.77;;;;;;;;;;10275352;28;20056;-63
2022/06/12 08:00:28;;;;;;;9.20;8.43;;;;;;;;;;10275157;28;20045;-63
2022/06/12 08:05:26;;;;;;;11.13;8.98;;;;;;;;;;10274814;28;20107;-63
2022/06/12 08:10:26;;;;;;;10.65;8.95;;;;;;;;;;10274870;28;20048;-64
2022/06/12 08:15:26;;;;;;;9.43;8.52;;;;;;;;;;10274947;28;20041;-63
2022/06/12 08:20:30;;;;;;;9.25;8.45;;;;;;;;;;10274442;28;20500;-63
2022/06/12 08:25:31;;;;;;;9.33;8.50;;;;;;;;;;10274790;28;20076;-64
2022/06/12 08:30:30;;;;;;;12.52;9.40;;;;;;;;;;10275230;28;20045;-63
2022/06/12 08:35:30;;;;;;;10.10;9.15;;;;;;;;;;10275056;28;20052;-63
2022/06/12 08:40:35;;;;;;;11.40;8.68;;;;;;;;;;10274446;28;20048;-64
2022/06/12 08:45:40;;;;;;;18.17;10.60;;;;;;;;;;10274371;28;20458;-64
2022/06/12 08:50:42;;;;;;;12.10;9.50;;;;;;;;;;10271995;28;20116;-63
2022/06/12 08:55:44;;;;;;;14.15;11.18;;;;;;;;;;10270658;28;20073;-63
2022/06/12 09:00:44;;;;;;;9.98;8.52;;;;;;;;;;10271133;28;20068;-64
2022/06/12 09:05:45;;;;;;;10.00;8.98;;;;;;;;;;10280715;28;20509;-64
2022/06/12 09:10:47;;;;;;;8.88;8.07;;;;;;;;;;10281685;28;20076;-64
2022/06/12 09:15:49;;;;;;;14.82;11.35;;;;;;;;;;10281661;28;20033;-65
2022/06/12 09:20:50;;;;;;;9.02;8.18;;;;;;;;;;10281146;28;20052;-64
2022/06/12 09:25:54;;;;;;;8.90;7.55;;;;;;;;;;10294006;28;20060;-65
2022/06/12 09:30:55;;;;;;;11.02;9.05;;;;;;;;;;10281069;28;20051;-64
2022/06/12 09:36:00;;;;;;;14.35;10.27;;;;;;;;;;10281195;28;20045;-64
2022/06/12 09:41:18;;;;;;;13.77;12.40;;;;;;;;;;10281393;28;20084;-64
2022/06/12 09:46:22;;;;;;;13.23;9.40;;;;;;;;;;10280850;28;20073;-64
2022/06/12 09:51:25;;;;;;;14.57;9.02;;;;;;;;;;10280479;28;20085;-65
2022/06/12 09:56:29;;;;;;;9.18;7.95;;;;;;;;;;10281049;28;20045;-64
2022/06/12 10:01:29;;;;;;;10.07;8.98;;;;;;;;;;10280325;28;20508;-64
2022/06/12 10:06:31;;;;;;;7.90;7.18;;;;;;;;;;10280125;28;20080;-65
2022/06/12 10:11:33;;;;;;;10.45;7.82;;;;;;;;;;10280199;28;20487;-64
2022/06/12 10:16:34;;;;;;;10.30;7.38;;;;;;;;;;10278552;28;20045;-64
2022/06/12 10:21:54;;;;;;;8.73;7.93;;;;;;;;;;10278836;28;20096;-64
2022/06/12 10:26:55;;;;;;;8.20;7.30;;;;;;;;;;10279202;28;20057;-65
2022/06/12 10:31:58;;;;;;;8.00;7.20;;;;;;;;;;10279286;28;20056;-64
2022/06/12 10:37:08;;;;;;;12.40;6.55;;;;;;;;;;10279121;28;20052;-64
2022/06/12 10:42:25;;;;;;;9.10;7.70;;;;;;;;;;10278789;28;20044;-64
2022/06/12 10:47:25;;;;;;;7.70;6.72;;;;;;;;;;10278787;28;20087;-64
2022/06/12 10:52:23;;;;;;;9.27;6.45;;;;;;;;;;10277774;28;20532;-64
2022/06/12 10:57:39;;;;;;;9.95;7.55;;;;;;;;;;10278448;28;20069;-64
2022/06/12 11:02:48;;;;;;;10.85;7.47;;;;;;;;;;10278249;28;20041;-64
2022/06/12 11:07:52;;;;;;;6.82;6.15;;;;;;;;;;10278045;28;20087;-64
2022/06/12 11:12:56;;;;;;;5.50;5.00;;;;;;;;;;10277888;28;20037;-64
2022/06/12 11:17:59;;;;;;;8.05;6.30;;;;;;;;;;10277907;28;20049;-65
2022/06/12 11:23:09;;;;;;;8.23;5.73;;;;;;;;;;10277336;28;20521;-65
2022/06/12 11:28:35;;;;;;;6.53;5.28;;;;;;;;;;10277170;28;20335;-65
2022/06/12 11:33:40;;;;;;;7.18;5.80;;;;;;;;;;10277367;28;20045;-65
2022/06/12 11:38:47;;;;;;;10.38;6.60;;;;;;;;;;10277300;28;20069;-65
2022/06/12 11:43:50;;;;;;;6.55;5.82;;;;;;;;;;10276183;28;20053;-63
2022/06/12 11:49:03;;;;;;;8.30;5.75;;;;;;;;;;10277075;28;20120;-65
2022/06/12 11:54:10;;;;;;;14.73;9.35;;;;;;;;;;10276234;28;20088;-64
2022/06/12 11:59:14;;;;;;;7.38;6.28;;;;;;;;;;10276745;28;20510;-63
2022/06/12 12:04:22;;;;;;;8.68;6.57;;;;;;;;;;10275732;28;20068;-64
2022/06/12 12:09:25;;;;;;;10.60;7.90;;;;;;;;;;10275170;28;20076;-64
2022/06/12 12:14:28;;;;;;;7.82;5.30;;;;;;;;;;10275277;28;20049;-63
2022/06/12 12:19:28;;;;;;;9.20;6.38;;;;;;;;;;10275640;28;20418;-64
2022/06/12 12:24:28;;;;;;;6.60;3.80;;;;;;;;;;10275280;28;20064;-63
2022/06/12 12:29:29;;;;;;;5.45;4.00;;;;;;;;;;10274857;28;20076;-64
2022/06/12 12:34:28;;;;;;;7.07;4.05;;;;;;;;;;10275133;28;20067;-65
2022/06/12 12:44:46;;;;;;;14.43;10.63;;;;;;;;;;10282741;28;20463;-64
2022/06/12 12:49:45;;;;;;;12.13;9.55;;;;;;;;;;10282406;28;20084;-64
2022/06/12 12:54:45;;;;;;;7.47;4.55;;;;;;;;;;10282403;28;20473;-64
2022/06/12 12:59:46;;;;;;;6.40;5.03;;;;;;;;;;10282169;28;20052;-63
2022/06/12 13:04:45;;;;;;;15.65;10.55;;;;;;;;;;10281101;28;20613;-64
2022/06/12 13:10:04;;;;;;;8.45;6.55;;;;;;;;;;10280356;28;20056;-64
2022/06/12 13:15:16;;;;;;;13.15;6.95;;;;;;;;;;10256595;28;20485;-63
2022/06/12 13:20:32;;;;;;;9.77;6.38;;;;;;;;;;10281381;28;20049;-63
2022/06/12 13:25:33;;;;;;;9.73;6.85;;;;;;;;;;10281563;28;20084;-63
2022/06/12 13:30:35;;;;;;;11.05;6.10;;;;;;;;;;10281097;28;20506;-63
2022/06/12 13:35:34;;;;;;;7.38;4.85;;;;;;;;;;10280760;28;20045;-64
2022/06/12 13:40:34;;;;;;;5.85;4.75;;;;;;;;;;10280677;28;20087;-64
2022/06/12 13:45:49;;;;;;;7.63;6.38;;;;;;;;;;10281038;28;20041;-63
2022/06/12 13:50:52;;;;;;;8.75;5.38;;;;;;;;;;10279758;28;20084;-64
2022/06/12 13:55:53;;;;;;;6.78;5.22;;;;;;;;;;10280350;28;20057;-63
2022/06/12 14:00:54;;;;;;;9.15;7.50;;;;;;;;;;10280520;28;20052;-64
2022/06/12 14:05:55;;;;;;;10.07;6.25;;;;;;;;;;10280466;28;20053;-63
2022/06/12 14:10:53;;;;;;;10.07;4.70;;;;;;;;;;10279750;28;20076;-63
2022/06/12 14:15:53;;;;;;;12.50;3.90;;;;;;;;;;10279428;28;20076;-63
2022/06/12 14:20:59;;;;;;;7.18;2.22;;;;;;;;;;10279279;28;20060;-63
2022/06/12 14:26:00;;;;;;;6.50;2.55;;;;;;;;;;10277891;28;20497;-61
2022/06/12 14:31:06;;;;;;;10.05;4.07;;;;;;;;;;10278164;28;20084;-63
2022/06/12 14:36:06;;;;;;;6.28;3.35;;;;;;;;;;10279078;28;20041;-63
2022/06/12 14:41:16;;;;;;;6.18;3.15;;;;;;;;;;10278810;28;20045;-63
2022/06/12 14:46:17;;;;;;;3.35;2.42;;;;;;;;;;10278541;28;20045;-63
2022/06/12 14:51:16;;;;;;;7.47;3.45;;;;;;;;;;10278573;28;20595;-63
2022/06/12 14:56:18;;;;;;;4.10;3.13;;;;;;;;;;10278430;28;20135;-62
2022/06/12 15:01:21;;;;;;;6.22;2.80;;;;;;;;;;10276392;28;20514;-63
2022/06/12 15:06:20;;;;;;;3.88;3.25;;;;;;;;;;10277802;28;20486;-63
2022/06/12 15:11:20;;;;;;;7.57;4.00;;;;;;;;;;10277524;28;20076;-63
2022/06/12 15:16:20;;;;;;;4.47;2.80;;;;;;;;;;10277435;28;20494;-63
2022/06/12 15:21:20;;;;;;;10.75;3.17;;;;;;;;;;10276643;28;20045;-63
2022/06/12 15:31:38;;;;;;;6.60;3.03;;;;;;;;;;10276047;28;20087;-62
2022/06/12 15:36:55;;;;;;;7.20;4.38;;;;;;;;;;10276737;28;20415;-63
2022/06/12 15:41:53;;;;;;;8.88;7.95;;;;;;;;;;10276733;28;20502;-63
2022/06/12 15:46:53;;;;;;;5.28;4.35;;;;;;;;;;10276355;28;20414;-62
2022/06/12 15:51:53;;;;;;;4.13;3.72;;;;;;;;;;10275037;28;20076;-64
2022/06/12 15:56:55;;;;;;;7.32;3.28;;;;;;;;;;10275579;28;20052;-63
2022/06/12 16:01:56;;;;;;;4.30;3.57;;;;;;;;;;10276011;28;20056;-64
2022/06/12 16:06:55;;;;;;;5.07;3.90;;;;;;;;;;10274836;28;20399;-63
2022/06/12 16:11:53;;;;;;;3.47;2.60;;;;;;;;;;10275872;28;20091;-63
2022/06/12 16:16:51;;;;;;;3.67;3.10;;;;;;;;;;10275654;28;20402;-63
2022/06/12 16:21:51;;;;;;;4.25;3.20;;;;;;;;;;10274758;28;20048;-63
2022/06/12 16:26:50;;;;;;;4.22;3.08;;;;;;;;;;10280102;28;20049;-64
2022/06/12 16:31:48;;;;;;;5.00;3.40;;;;;;;;;;10288496;28;20361;-63
2022/06/12 16:36:47;;;;;;;4.15;3.15;;;;;;;;;;10273192;28;20061;-63
2022/06/12 16:41:48;;;;;;;4.53;4.05;;;;;;;;;;10273088;28;20083;-64
2022/06/12 16:46:47;;;;;;;4.18;3.05;;;;;;;;;;10275355;28;20045;-64
2022/06/12 16:51:53;;;;;;;4.63;4.13;;;;;;;;;;10274448;28;20077;-63
2022/06/12 16:56:53;;;;;;;4.32;3.92;;;;;;;;;;10274439;28;20087;-64
2022/06/12 17:01:51;;;;;;;3.80;3.35;;;;;;;;;;10274954;28;20091;-63
2022/06/12 17:06:50;;;;;;;4.10;3.25;;;;;;;;;;10274756;28;20045;-63
2022/06/12 17:11:48;;;;;;;7.70;3.67;;;;;;;;;;10274505;28;20088;-63
2022/06/12 17:16:48;;;;;;;6.45;3.40;;;;;;;;;;10274560;28;20052;-64
2022/06/12 17:21:46;;;;;;;3.33;2.75;;;;;;;;;;10273798;28;20045;-63
2022/06/12 17:26:45;;;;;;;6.78;3.72;;;;;;;;;;10281073;28;20073;-63
2022/06/12 17:31:44;;;;;;;3.50;3.20;;;;;;;;;;10281334;28;20076;-64
2022/06/12 17:36:50;;;;;;;8.63;4.75;;;;;;;;;;10281459;28;20206;-63
2022/06/12 17:41:49;;;;;;;5.57;3.70;;;;;;;;;;10281004;28;20049;-63
2022/06/12 17:46:48;;;;;;;6.03;3.65;;;;;;;;;;10280971;28;20049;-64
2022/06/12 17:51:46;;;;;;;4.30;3.45;;;;;;;;;;10280707;28;20072;-64
2022/06/12 17:56:46;;;;;;;4.03;3.22;;;;;;;;;;10280780;28;20391;-64
2022/06/12 18:01:44;;;;;;;6.40;4.10;;;;;;;;;;10280582;28;20506;-63
2022/06/12 18:06:49;;;;;;;7.00;3.30;;;;;;;;;;10279432;28;20465;-63
2022/06/12 18:11:49;;;;;;;4.20;3.70;;;;;;;;;;10280033;28;20560;-64
2022/06/12 18:22:03;;;;;;;5.13;4.63;;;;;;;;;;10279217;28;20045;-63
2022/06/12 18:27:03;;;;;;;7.30;3.53;;;;;;;;;;10278782;28;20048;-63
2022/06/12 18:32:01;;;;;;;6.57;3.50;;;;;;;;;;10277927;28;20076;-65
2022/06/12 18:36:59;;;;;;;5.45;4.95;;;;;;;;;;10277286;28;20045;-64
2022/06/12 18:41:58;;;;;;;8.57;7.22;;;;;;;;;;10278821;28;20048;-64
2022/06/12 18:46:57;;;;;;;90.63;83.18;;;;;;;;;;10278537;28;20072;-65
2022/06/12 18:51:56;;;;;;;16.83;15.13;;;;;;;;;;10278269;28;20080;-65
2022/06/12 18:56:59;;;;;;;10.53;5.00;;;;;;;;;;10276399;28;20052;-65
2022/06/12 19:01:59;;;;;;;11.57;4.88;;;;;;;;;;10277345;28;20490;-65
2022/06/12 19:06:57;;;;;;;4.93;4.05;;;;;;;;;;10277756;28;20070;-65
2022/06/12 19:11:57;;;;;;;6.75;4.95;;;;;;;;;;10277378;28;20076;-65
2022/06/12 19:17:03;;;;;;;14.00;5.65;;;;;;;;;;10277720;28;20080;-65
2022/06/12 19:22:01;;;;;;;8.45;4.35;;;;;;;;;;10277250;28;20049;-64
2022/06/12 19:27:00;;;;;;;5.80;4.95;;;;;;;;;;10275287;28;20426;-64
2022/06/12 19:31:58;;;;;;;8.45;5.65;;;;;;;;;;10275702;28;20072;-64
2022/06/12 19:36:59;;;;;;;8.70;4.50;;;;;;;;;;10276309;28;20092;-63
2022/06/12 19:41:59;;;;;;;8.98;4.97;;;;;;;;;;10273943;28;20075;-63
2022/06/12 19:46:58;;;;;;;7.63;4.32;;;;;;;;;;10273099;28;20076;-64
2022/06/12 19:51:57;;;;;;;13.80;5.15;;;;;;;;;;10272711;28;20076;-64
2022/06/12 19:56:57;;;;;;;10.13;4.90;;;;;;;;;;10273104;28;20186;-64
2022/06/12 20:01:55;;;;;;;7.93;4.85;;;;;;;;;;10273516;28;20080;-64
2022/06/12 20:12:11;;;;;;;12.15;5.18;;;;;;;;;;10271594;28;20080;-64
2022/06/12 20:17:09;;;;;;;11.00;5.88;;;;;;;;;;10271753;28;20144;-64
2022/06/12 20:22:09;;;;;;;9.00;5.63;;;;;;;;;;10270784;28;20080;-64
2022/06/12 20:27:08;;;;;;;17.50;6.20;;;;;;;;;;10271537;28;20529;-64
2022/06/12 20:32:09;;;;;;;14.55;5.82;;;;;;;;;;10271357;28;20064;-64
2022/06/12 20:37:08;;;;;;;11.50;5.93;;;;;;;;;;10272271;28;20520;-65
2022/06/12 20:42:06;;;;;;;16.67;6.20;;;;;;;;;;10274872;28;20086;-64
2022/06/12 20:47:05;;;;;;;8.60;5.45;;;;;;;;;;10274379;28;20069;-65
2022/06/12 20:52:06;;;;;;;13.15;6.10;;;;;;;;;;10273660;28;20557;-64
2022/06/12 20:57:04;;;;;;;9.85;5.55;;;;;;;;;;10273415;28;20076;-63
2022/06/12 21:02:03;;;;;;;11.05;5.45;;;;;;;;;;10282518;28;20077;-63
2022/06/12 21:07:01;;;;;;;12.40;7.13;;;;;;;;;;10282600;28;20087;-64
2022/06/12 21:12:02;;;;;;;7.45;6.40;;;;;;;;;;10282143;28;20525;-65
2022/06/12 21:17:01;;;;;;;11.23;6.72;;;;;;;;;;10282287;28;20041;-65
2022/06/12 21:21:59;;;;;;;18.23;6.55;;;;;;;;;;10281790;28;20147;-64
2022/06/12 21:27:03;;;;;;;11.70;6.35;;;;;;;;;;10280167;28;20076;-65
2022/06/12 21:32:02;;;;;;;10.60;7.03;;;;;;;;;;10281598;28;20525;-65
2022/06/12 21:37:01;;;;;;;15.43;7.10;;;;;;;;;;10279951;28;20411;-64
2022/06/12 21:41:59;;;;;;;14.20;7.28;;;;;;;;;;10277818;28;20080;-64
2022/06/12 21:46:59;;;;;;;16.52;7.75;;;;;;;;;;10277241;28;20076;-64
2022/06/12 21:57:13;;;;;;;16.40;7.57;;;;;;;;;;10279022;28;20422;-65
2022/06/12 22:02:14;;;;;;;18.77;10.18;;;;;;;;;;10280638;28;20047;-64
2022/06/12 22:07:15;;;;;;;12.43;8.00;;;;;;;;;;10280746;28;20088;-64
2022/06/12 22:12:14;;;;;;;15.77;7.40;;;;;;;;;;10280221;28;20077;-64
2022/06/12 22:17:14;;;;;;;14.80;7.10;;;;;;;;;;10280311;28;20080;-64
2022/06/12 22:22:13;;;;;;;14.48;7.72;;;;;;;;;;10279253;28;20053;-65
2022/06/12 22:27:12;;;;;;;14.43;8.15;;;;;;;;;;10279802;28;20080;-65
2022/06/12 22:32:10;;;;;;;17.85;10.38;;;;;;;;;;10279720;28;20079;-65
2022/06/12 22:37:10;;;;;;;11.43;7.85;;;;;;;;;;10279533;28;20521;-65
2022/06/12 22:42:09;;;;;;;15.00;7.75;;;;;;;;;;10277705;28;20056;-65
2022/06/12 22:47:07;;;;;;;19.27;8.18;;;;;;;;;;10279202;28;20037;-64
2022/06/12 22:52:06;;;;;;;18.65;8.43;;;;;;;;;;10278676;28;20072;-64
2022/06/12 22:57:06;;;;;;;14.43;7.55;;;;;;;;;;10278689;28;20474;-64
2022/06/12 23:02:04;;;;;;;19.70;7.60;;;;;;;;;;10278359;28;20045;-65
2022/06/12 23:07:03;;;;;;;14.23;7.40;;;;;;;;;;10278350;28;20041;-65
2022/06/12 23:12:01;;;;;;;21.27;7.72;;;;;;;;;;10277919;28;20479;-65
2022/06/12 23:17:01;;;;;;;13.32;7.40;;;;;;;;;;10277828;28;20041;-65
2022/06/12 23:21:59;;;;;;;13.07;6.68;;;;;;;;;;10276432;28;20080;-65
2022/06/12 23:26:58;;;;;;;17.02;7.15;;;;;;;;;;10277450;28;20048;-65
2022/06/12 23:31:56;;;;;;;15.07;6.57;;;;;;;;;;10276832;28;20077;-65
2022/06/12 23:36:56;;;;;;;11.80;6.22;;;;;;;;;;10277095;28;20498;-65
2022/06/12 23:41:54;;;;;;;12.18;6.13;;;;;;;;;;10277465;28;20083;-65
2022/06/12 23:46:54;;;;;;;14.10;5.65;;;;;;;;;;10276762;28;20045;-65
2022/06/12 23:51:53;;;;;;;13.85;6.05;;;;;;;;;;10277002;28;20710;-65
2022/06/12 23:56:52;;;;;;;10.07;5.90;;;;;;;;;;10275905;28;20045;-65
